createdAt,value
2022-09-05T00:00:11.677Z,46.35
2022-09-05T00:05:07.757Z,46.36
2022-09-05T00:10:08.459Z,46.38
2022-09-05T00:15:17.392Z,46.42
2022-09-05T00:24:20.942Z,46.43
2022-09-05T00:25:30.555Z,46.44
2022-09-05T00:31:05.622Z,46.48
2022-09-05T00:35:08.071Z,46.5
2022-09-05T00:40:18.468Z,46.51
2022-09-05T00:45:14.483Z,46.54
2022-09-05T00:50:08.320Z,46.55
2022-09-05T00:55:09.833Z,46.58
2022-09-05T01:00:08.510Z,46.61
2022-09-05T01:05:08.196Z,46.6
2022-09-05T01:10:07.910Z,46.64
2022-09-05T01:15:08.612Z,46.66
2022-09-05T01:20:19.210Z,46.67
2022-09-05T01:25:08.080Z,46.68
2022-09-05T01:30:07.756Z,46.71
2022-09-05T01:35:08.463Z,46.73
2022-09-05T01:40:15.329Z,46.76
2022-09-05T01:45:08.013Z,46.75
2022-09-05T01:50:07.721Z,46.8
2022-09-05T01:55:17.950Z,46.8
2022-09-05T02:00:07.779Z,46.82
2022-09-05T02:05:08.497Z,46.86
2022-09-05T02:10:08.203Z,46.85
2022-09-05T02:15:07.876Z,46.88
2022-09-05T02:20:23.555Z,46.9
2022-09-05T02:25:30.611Z,46.91
2022-09-05T02:30:07.727Z,46.95
2022-09-05T02:35:08.330Z,46.93
2022-09-05T02:45:01.475Z,46.98
2022-09-05T02:45:25.620Z,47.0
2022-09-05T02:51:43.657Z,47.01
2022-09-05T02:57:35.917Z,47.02
2022-09-05T03:00:08.173Z,47.04
2022-09-05T03:05:07.861Z,47.05
2022-09-05T03:10:08.593Z,47.05
2022-09-05T03:15:22.294Z,47.04
2022-09-05T03:20:07.778Z,47.06
2022-09-05T03:25:08.521Z,47.05
2022-09-05T03:30:12.197Z,47.07
2022-09-05T03:35:08.885Z,47.07
2022-09-05T03:40:15.989Z,47.07
2022-09-05T03:45:08.361Z,47.06
2022-09-05T03:54:04.251Z,47.07
2022-09-05T03:57:26.493Z,47.08
2022-09-05T04:00:07.864Z,47.09
2022-09-05T04:08:14.567Z,47.1
2022-09-05T04:10:02.797Z,47.11
2022-09-05T04:15:02.765Z,47.13
2022-09-05T04:20:06.991Z,47.11
2022-09-05T04:25:01.892Z,47.15
2022-09-05T04:30:04.980Z,47.14
2022-09-05T04:35:02.091Z,47.14
2022-09-05T04:40:02.139Z,47.18
2022-09-05T04:45:02.052Z,47.2
2022-09-05T04:50:01.879Z,47.21
2022-09-05T04:55:02.724Z,47.3
2022-09-05T05:06:00.031Z,47.47
2022-09-05T05:06:11.230Z,47.56
2022-09-05T05:10:54.057Z,47.7
2022-09-05T05:18:13.921Z,47.78
2022-09-05T05:20:41.332Z,47.91
2022-09-05T05:25:02.455Z,47.99
2022-09-05T05:30:02.255Z,48.09
2022-09-05T05:35:02.100Z,48.16
2022-09-05T05:40:02.071Z,48.26
2022-09-05T05:45:01.926Z,48.32
2022-09-05T05:50:12.795Z,48.41
2022-09-05T05:55:46.846Z,48.5
2022-09-05T06:00:02.354Z,48.58
2022-09-05T06:05:12.269Z,48.66
2022-09-05T06:14:56.141Z,48.71
2022-09-05T06:15:10.688Z,48.72
2022-09-05T06:20:45.905Z,48.8
2022-09-05T06:25:07.696Z,48.81
2022-09-05T06:30:02.016Z,48.86
2022-09-05T06:35:02.004Z,48.84
2022-09-05T06:40:01.956Z,48.88
2022-09-05T06:45:10.661Z,48.88
2022-09-05T06:50:21.697Z,48.91
2022-09-05T06:55:02.612Z,48.94
2022-09-05T07:00:02.611Z,48.98
2022-09-05T07:05:38.598Z,48.98
2022-09-05T07:10:16.766Z,49.03
2022-09-05T07:15:08.293Z,49.02
2022-09-05T07:20:02.145Z,49.01
2022-09-05T07:25:02.061Z,49.05
2022-09-05T07:30:02.298Z,49.06
2022-09-05T07:35:02.159Z,49.11
2022-09-05T07:40:11.434Z,49.09
2022-09-05T07:45:02.244Z,49.06
2022-09-05T07:50:49.898Z,49.03
2022-09-05T07:55:02.191Z,48.98
2022-09-05T08:00:01.841Z,48.92
2022-09-05T08:05:02.754Z,48.89
2022-09-05T08:10:08.450Z,48.8
2022-09-05T08:15:01.928Z,48.74
2022-09-05T08:20:08.391Z,48.71
2022-09-05T08:25:01.966Z,48.62
2022-09-05T08:30:26.154Z,48.58
2022-09-05T08:35:02.389Z,48.49
2022-09-05T08:40:10.174Z,48.38
2022-09-05T08:46:39.659Z,48.36
2022-09-05T08:50:02.273Z,48.22
2022-09-05T08:55:07.228Z,48.15
2022-09-05T09:00:19.897Z,48.04
2022-09-05T09:05:02.865Z,47.95
2022-09-05T09:10:02.016Z,47.85
2022-09-05T09:15:01.805Z,47.76
2022-09-05T09:20:02.612Z,47.64
2022-09-05T09:25:14.436Z,47.54
2022-09-05T09:30:02.625Z,47.44
2022-09-05T09:35:05.498Z,47.34
2022-09-05T09:40:02.022Z,47.21
2022-09-05T09:45:22.852Z,47.11
2022-09-05T09:50:01.996Z,46.98
2022-09-05T09:55:01.905Z,46.88
2022-09-05T10:00:02.809Z,46.74
2022-09-05T10:10:39.831Z,46.68
2022-09-05T10:10:44.035Z,46.51
2022-09-05T10:15:09.095Z,46.48
2022-09-05T10:20:11.366Z,46.33
2022-09-05T10:25:11.295Z,46.2
2022-09-05T10:30:03.427Z,46.13
2022-09-05T10:35:18.208Z,46.07
2022-09-05T10:40:02.441Z,46.02
2022-09-05T10:45:02.273Z,45.99
2022-09-05T10:50:02.152Z,45.86
2022-09-05T10:55:13.758Z,45.77
2022-09-05T11:02:21.586Z,45.59
2022-09-05T11:05:02.737Z,45.49
2022-09-05T11:10:12.560Z,45.27
2022-09-05T11:15:02.390Z,45.13
2022-09-05T11:20:02.276Z,44.94
2022-09-05T11:25:02.056Z,44.8
2022-09-05T11:30:01.871Z,44.55
2022-09-05T11:40:06.172Z,44.43
2022-09-05T11:40:30.124Z,44.22
2022-09-05T11:45:02.306Z,44.05
2022-09-05T11:50:12.116Z,43.89
2022-09-05T11:55:01.939Z,43.75
2022-09-05T12:00:17.193Z,43.57
2022-09-05T12:05:48.921Z,43.42
2022-09-05T12:10:02.262Z,43.35
2022-09-05T12:15:04.389Z,43.14
2022-09-05T12:20:02.206Z,42.82
2022-09-05T12:25:26.697Z,42.7
2022-09-05T12:30:02.406Z,42.56
2022-09-05T12:36:05.574Z,42.53
2022-09-05T12:41:38.938Z,42.39
2022-09-05T12:45:02.658Z,42.26
2022-09-05T12:50:14.448Z,42.15
2022-09-05T12:55:08.535Z,42.01
2022-09-05T13:03:13.740Z,41.85
2022-09-05T13:05:02.717Z,41.82
2022-09-05T13:13:56.611Z,41.63
2022-09-05T13:15:14.126Z,41.59
2022-09-05T13:20:02.405Z,41.46
2022-09-05T13:25:02.312Z,41.43
2022-09-05T13:31:54.748Z,41.31
2022-09-05T13:38:21.301Z,41.26
2022-09-05T13:40:02.427Z,41.12
2022-09-05T13:45:02.278Z,41.06
2022-09-05T13:50:05.049Z,40.95
2022-09-05T13:55:02.434Z,40.89
2022-09-05T14:00:06.680Z,40.8
2022-09-05T14:05:05.762Z,40.72
2022-09-05T14:10:02.029Z,40.58
2022-09-05T14:15:10.520Z,40.53
2022-09-05T14:20:10.409Z,40.42
2022-09-05T14:25:03.452Z,40.46
2022-09-05T14:31:16.993Z,40.4
2022-09-05T14:37:51.499Z,40.36
2022-09-05T14:40:02.232Z,40.32
2022-09-05T14:45:02.156Z,40.32
2022-09-05T14:50:04.018Z,40.23
2022-09-05T14:55:22.297Z,40.21
2022-09-05T15:02:44.703Z,40.21
2022-09-05T15:05:11.334Z,40.18
2022-09-05T15:12:15.153Z,40.14
2022-09-05T15:15:02.283Z,40.13
2022-09-05T15:20:06.271Z,40.09
2022-09-05T15:25:16.925Z,40.1
2022-09-05T15:30:02.564Z,40.04
2022-09-05T15:35:02.309Z,40.01
2022-09-05T15:40:02.299Z,39.98
2022-09-05T15:45:10.226Z,39.92
2022-09-05T15:50:02.609Z,39.98
2022-09-05T15:55:02.538Z,39.96
2022-09-05T16:00:02.362Z,39.95
2022-09-05T16:07:57.204Z,39.98
2022-09-05T16:10:35.550Z,39.94
2022-09-05T16:17:33.651Z,39.95
2022-09-05T16:23:28.532Z,39.93
2022-09-05T16:25:02.505Z,39.96
2022-09-05T16:30:02.356Z,39.92
2022-09-05T16:35:02.187Z,39.94
2022-09-05T16:40:02.134Z,39.97
2022-09-05T16:45:02.066Z,39.96
2022-09-05T16:50:01.869Z,39.98
2022-09-05T16:55:02.751Z,39.96
2022-09-05T17:00:02.558Z,40.01
2022-09-05T17:05:04.467Z,40.01
2022-09-05T17:10:02.129Z,40.02
2022-09-05T17:15:01.910Z,40.05
2022-09-05T17:20:07.039Z,40.08
2022-09-05T17:29:24.742Z,40.08
2022-09-05T17:35:17.611Z,40.17
2022-09-05T17:40:02.281Z,40.23
2022-09-05T17:45:02.254Z,40.25
2022-09-05T17:50:02.149Z,40.35
2022-09-05T17:55:01.998Z,40.43
2022-09-05T18:00:09.423Z,40.52
2022-09-05T18:05:02.363Z,40.63
2022-09-05T18:10:14.825Z,40.77
2022-09-05T18:15:05.233Z,40.83
2022-09-05T18:20:06.193Z,40.94
2022-09-05T18:25:16.592Z,41.0
2022-09-05T18:30:01.718Z,41.12
2022-09-05T18:35:01.777Z,41.19
2022-09-05T18:40:02.698Z,41.27
2022-09-05T18:45:02.645Z,41.28
2022-09-05T18:50:24.551Z,41.41
2022-09-05T18:56:09.965Z,41.46
2022-09-05T19:00:02.643Z,41.56
2022-09-05T19:05:02.639Z,41.59
2022-09-05T19:10:35.054Z,41.71
2022-09-05T19:15:06.949Z,41.77
2022-09-05T19:20:14.227Z,41.83
2022-09-05T19:25:02.105Z,41.88
2022-09-05T19:36:55.108Z,42.04
2022-09-05T19:37:04.206Z,41.99
2022-09-05T19:42:14.353Z,42.13
2022-09-05T19:47:41.506Z,42.15
2022-09-05T19:50:02.722Z,42.25
2022-09-05T19:55:02.554Z,42.31
2022-09-05T20:00:02.353Z,42.37
2022-09-05T20:05:02.185Z,42.41
2022-09-05T20:10:01.974Z,42.53
2022-09-05T20:15:01.728Z,42.59
2022-09-05T20:20:02.668Z,42.64
2022-09-05T20:25:02.606Z,42.67
2022-09-05T20:30:02.529Z,42.75
2022-09-05T20:38:39.458Z,42.8
2022-09-05T20:43:16.207Z,42.85
2022-09-05T20:45:07.946Z,42.9
2022-09-05T20:54:07.707Z,42.98
2022-09-05T20:55:37.752Z,43.02
2022-09-05T21:00:07.929Z,43.08
2022-09-05T21:05:20.720Z,43.08
2022-09-05T21:10:07.995Z,43.19
2022-09-05T21:15:22.906Z,43.21
2022-09-05T21:20:08.191Z,43.28
2022-09-05T21:25:07.865Z,43.31
2022-09-05T21:30:08.540Z,43.38
2022-09-05T21:35:16.724Z,43.4
2022-09-05T21:40:08.209Z,43.46
2022-09-05T21:47:39.316Z,43.49
2022-09-05T21:50:08.495Z,43.56
2022-09-05T21:59:19.173Z,43.59
2022-09-05T22:00:10.697Z,43.65
2022-09-05T22:05:07.789Z,43.65
2022-09-05T22:10:08.474Z,43.72
2022-09-05T22:15:28.409Z,43.76
2022-09-05T22:20:08.208Z,43.8
2022-09-05T22:25:07.903Z,43.85
2022-09-05T22:30:08.607Z,43.89
2022-09-05T22:35:15.784Z,43.95
2022-09-05T22:40:08.439Z,43.97
2022-09-05T22:45:08.194Z,44.01
2022-09-05T22:50:07.883Z,44.06
2022-09-05T22:55:08.579Z,44.11
2022-09-05T23:01:01.081Z,44.16
2022-09-05T23:05:07.794Z,44.16
2022-09-05T23:10:07.690Z,44.19
2022-09-05T23:15:08.389Z,44.2
2022-09-05T23:20:08.111Z,44.24
2022-09-05T23:25:07.825Z,44.24
2022-09-05T23:30:08.515Z,44.25
2022-09-05T23:35:08.224Z,44.25
2022-09-05T23:40:08.028Z,44.28
2022-09-05T23:45:07.734Z,44.28
2022-09-05T23:50:08.451Z,44.29
2022-09-05T23:55:08.189Z,44.32
